Weather observations for the past three days for
Falfurrias, Brooks County Airport
Imperial (Metric)
Date Time (cdt) Wind (mph) Vis. (mi.) Weather Sky Cond. Temperature (ºF) Relative Humidity Wind Chill (°F) Heat Index (°F) Pressure Precipitation (in)
Air Dwpt 6 hour altimeter (in) sea level (mb) 1 hr 3 hr 6 hr
Max. Min.
02 17:15 E 9 10.00 Partly Cloudy SCT120 73.6 54.1 51% 30.07 0.0
02 16:55 E 10 10.00 Partly Cloudy SCT120 74.5 52.2 46% 30.08 0.0
02 16:35 NE 7 10.00 Mostly Cloudy BKN120 74.1 50.5 44% 30.08 0.0
02 16:15 NE 12 10.00 NULL NULL 73.4 51.1 46% 30.08 0.0
02 15:55 NE 12 10.00 NULL NULL 73.8 51.6 46% 30.09 0.0
02 15:35 NE 13 G 20 10.00 Mostly Cloudy FEW048 BKN120 73.6 52.5 48% 30.09 0.0
02 15:15 NE 12 10.00 Partly Cloudy FEW041 SCT120 SCT150 73.2 55.8 54% 30.1 0.0
02 14:55 NE 12 10.00 Mostly Cloudy SCT039 SCT120 BKN300 75.2 56.5 52% 78 30.11 0.0
02 14:35 NE 7 10.00 Mostly Cloudy SCT036 BKN120 BKN300 75 57.4 54% 78 30.11 0.0
02 14:15 NE 8 10.00 Mostly Cloudy BKN034 BKN120 73.8 57 56% 30.12 0.0
02 13:55 N 12 10.00 Mostly Cloudy BKN032 BKN300 72.9 57.2 58% 30.12 0.0
02 13:35 N 9 10.00 Mostly Cloudy SCT029 BKN300 71.6 57.4 61% 30.13 0.0
02 13:15 Vrbl 6 10.00 Overcast OVC029 70.3 57.2 63% 30.13 0.0
02 12:55 N 8 10.00 Mostly Cloudy BKN025 69.8 56.8 64% 30.14 0.0
02 12:35 NE 9 10.00 Mostly Cloudy SCT023 BKN120 BKN360 67.5 57 69% 30.15 0.0
02 12:15 N 10 10.00 Mostly Cloudy SCT021 BKN120 66 55.6 69% 30.15 0.0
02 11:55 N 7 10.00 Overcast OVC020 64.9 56.3 74% 30.15 0.0
02 11:35 N 7 10.00 Overcast OVC018 63.5 55.6 76% 30.15 0.0
02 11:15 NE 10 10.00 Overcast OVC018 63.3 55.9 77% 30.15 0.0
02 10:55 NE 12 10.00 Overcast OVC016 62.6 55.6 78% 30.14 0.0
02 10:35 N 8 10.00 Overcast OVC016 61.9 55.6 80% 30.14 0.0
02 10:15 N 12 10.00 Overcast OVC015 61.2 55.8 83% 30.14 0.0
02 09:55 N 8 10.00 Overcast OVC015 60.8 55.6 83% 30.13 0.0
02 09:35 N 10 10.00 Overcast OVC014 60.4 55.6 84% 30.12 0.0
02 09:15 N 7 10.00 Overcast OVC014 59.9 55.4 85% 30.12 0.0
02 08:55 N 10 10.00 Overcast OVC013 59.7 55.6 86% 30.11 0.0
02 08:35 N 8 10.00 Overcast OVC013 59.9 55.8 86% 30.1 0.0
02 08:15 N 8 10.00 Overcast OVC013 59.2 55.6 88% 30.09 0.0
02 07:55 N 9 9.00 Overcast OVC013 58.8 55.6 89% 30.09 0.0
02 07:35 N 8 9.00 Overcast OVC012 58.5 55.2 89% 30.08 0.0
02 07:15 N 15 G 21 9.00 Overcast OVC012 58.1 54.9 89% 30.05 0.0
02 06:55 N 13 G 22 9.00 Overcast OVC012 58.3 55 89% 30.04 0.0
02 06:35 N 15 G 22 10.00 Overcast OVC012 58.5 55.2 89% 30.03 0.0
02 06:15 N 13 G 20 10.00 Overcast OVC012 59.2 56.1 90% 30.02 0.0
02 05:55 N 16 G 22 10.00 Overcast OVC012 59.5 55.9 88% 30.01 0.0
02 05:35 N 14 10.00 Overcast OVC013 59.9 56.8 90% 30.01 0.0
02 05:15 N 12 G 20 10.00 Overcast OVC013 59.9 56.5 89% 30 0.0
02 04:55 N 13 G 20 10.00 Overcast OVC013 59.7 56.3 89% 30 0.0
02 04:35 N 14 10.00 Overcast OVC013 59.5 56.1 89% 30 0.0
02 04:15 N 13 10.00 Overcast OVC012 59.4 55.9 89% 30 0.0
02 03:55 N 12 10.00 Overcast OVC012 59.5 56.3 89% 30 0.0
02 03:35 N 9 10.00 Overcast OVC012 60.1 56.8 89% 30 0.0
02 03:15 N 14 10.00 Overcast OVC011 60.1 57.4 91% 29.99 0.0
02 02:55 N 12 10.00 Overcast OVC011 60.3 57.6 91% 30.01 0.0
02 02:35 N 13 9.00 Overcast OVC012 60.6 57.7 90% 30.01 0.0
02 02:15 N 10 10.00 Overcast OVC012 61 57.9 90% 30.01 0.0
02 01:55 N 13 G 20 10.00 Overcast OVC013 61.5 58.3 89% 30 0.0
02 01:35 N 10 10.00 Overcast OVC013 61.5 58.3 89% 30 0.0
02 01:15 N 13 G 21 10.00 Overcast OVC013 61.9 57.9 87% 30 0.0
02 00:55 N 7 10.00 Overcast OVC013 62.4 58.5 87% 30 0.0
02 00:35 N 12 G 21 10.00 Overcast OVC013 62.1 58.8 89% 30 0.0
02 00:15 N 12 10.00 Overcast OVC014 62.4 59.2 89% 29.98 0.0
01 23:55 N 12 10.00 Overcast OVC014 62.6 59.4 89% 29.98 0.0
01 23:35 N 14 10.00 Overcast OVC014 62.6 59.4 89% 29.97 0.0
01 23:15 N 13 10.00 Overcast OVC013 63 59.9 90% 29.95 0.0
01 22:55 N 15 G 22 10.00 Overcast OVC013 63.1 60.1 90% 29.94 0.0
01 22:35 N 14 10.00 Overcast OVC014 63.9 61.2 91% 29.93 0.0
01 22:15 N 14 10.00 Overcast OVC014 64.2 61.2 90% 29.92 0.0
01 21:55 N 13 G 30 10.00 Overcast OVC015 64.8 61.7 90% 29.91 0.0
01 21:35 N 14 10.00 Overcast OVC014 64.9 62.6 92% 29.9 0.0
01 21:15 N 15 9.00 Overcast OVC013 64.9 62.8 93% 29.88 0.0
01 20:55 N 13 10.00 Mostly Cloudy BKN013 65.1 63 93% 29.85 0.0
01 20:35 NE 14 9.00 Mostly Cloudy FEW014 SCT060 BKN075 65.3 63.3 93% 29.83 0.0
01 20:15 N 14 10.00 Overcast FEW014 SCT046 OVC065 65.7 63.9 94% 29.82 0.0
01 19:55 N 14 10.00 Overcast FEW012 BKN046 OVC060 65.7 64.2 95% 29.8 0.0
01 19:35 N 16 G 24 10.00 Mostly Cloudy SCT012 BKN045 BKN055 65.8 64.8 96% 29.8 0.0
01 19:15 N 20 G 26 10.00 Partly Cloudy SCT010 66.4 65.5 97% 29.8 0.0
01 18:55 N 15 G 29 10.00 NULL NULL 66.9 66.4 98% 29.79 0.0
01 18:35 N 20 G 26 8.00 Light Rain NULL 67.1 66.6 98% 29.79 0.0 0.01
01 18:15 N 13 6.00 Light Rain Fog/Mist NULL 67.5 66.7 98% 29.78 0.0 0.01
01 17:55 N 13 5.00 Light Rain Fog/Mist NULL 67.6 66.7 97% 29.77 0.0
01 17:35 N 10 6.00 Light Rain Fog/Mist CLR 67.6 66.6 96% 29.76 0.0
01 17:15 N 13 5.00 Light Rain Fog/Mist NULL 67.8 66.6 96% 29.75 0.0
01 16:55 N 12 9.00 Light Rain BKN008 OVC012 67.8 67.3 98% 29.74 0.0
01 16:35 N 9 G 25 10.00 Overcast OVC010 68 66.9 96% 29.73 0.0
01 16:15 N 14 10.00 Mostly Cloudy BKN009 68.4 67.6 98% 29.72 0.0
01 15:55 N 8 G 20 8.00 Light Rain NULL 68.5 68 98% 29.72 0.0
01 15:35 N 12 G 24 6.00 Light Rain Fog/Mist NULL 68.9 68.4 98% 29.72 0.0
01 15:15 N 13 G 21 6.00 Light Rain Fog/Mist NULL 70.3 69.6 98% 29.72 0.0
01 14:55 NW 10 7.00 Light Rain NULL 71.2 70.3 97% 29.72 0.0
01 14:35 N 14 5.00 Light Rain Fog/Mist NULL 72.7 71.6 96% 29.72 0.0
01 14:15 N 7 10.00 Overcast OVC006 73.4 72.5 97% 29.71 0.0
01 13:55 N 6 10.00 Overcast BKN007 OVC043 73.6 72.7 97% 29.71 0.0
01 13:35 NE 8 10.00 Overcast BKN006 OVC043 73.4 72.9 98% 29.7 0.0 0.01
01 12:55 NE 7 6.00 Light Rain Fog/Mist NULL 71.6 71.2 99% 29.73 0.0 0.01
01 12:35 N 8 7.00 Light Rain FEW005 71.2 70.9 99% 29.74 0.0 0.01
01 12:15 N 9 8.00 Light Rain SCT005 SCT019 71.1 70.5 98% 29.75 0.0 0.01
01 11:55 NE 9 7.00 Light Rain NULL 70.9 70.3 98% 29.76 0.0
01 11:35 N 8 7.00 Light Rain NULL 70.9 69.8 96% 29.76 0.0 0.04
01 11:15 NE 12 4.00 Light Rain Fog/Mist NULL 71.8 70.3 95% 29.76 0.0 0.02
01 10:55 NE 12 3.00 Light Rain Fog/Mist NULL 73.4 71.2 93% 29.76 0.0 0.01
01 10:35 NE 12 G 16 6.00 Light Rain Fog/Mist NULL 77.7 73.9 88% 80 29.77 0.0
01 10:15 E 7 10.00 Overcast OVC038 78.6 74.8 88% 82 29.76 0.0
01 09:55 E 8 10.00 Mostly Cloudy BKN042 79 75.4 89% 83 29.76 0.0
01 09:35 E 7 10.00 Mostly Cloudy BKN043 78.1 75.9 93% 81 29.75 0.0
01 09:15 E 7 10.00 Overcast OVC044 77.5 75.6 94% 79 29.75 0.0
01 08:55 E 7 10.00 Mostly Cloudy BKN048 77.5 75.6 94% 79 29.76 0.0
01 08:35 E 8 10.00 Mostly Cloudy FEW041 BKN050 77 75.7 96% 78 29.76 0.0
01 08:15 E 7 10.00 Partly Cloudy SCT044 76.5 75.7 98% 76 29.76 0.0
01 07:55 NE 6 10.00 A Few Clouds FEW025 76.3 75.9 99% 76 29.77 0.0
01 07:35 NE 6 10.00 A Few Clouds FEW026 75.9 75.9 100% 75 29.77 0.0
01 07:15 NE 5 10.00 Fair CLR 75.6 75.6 100% 74 29.76 0.0
01 06:55 NE 5 10.00 Fair CLR 75.6 75.4 99% 74 29.74 0.0
01 06:35 NE 6 10.00 Fair CLR 75.9 74.7 96% 75 29.74 0.0
01 06:15 NE 5 10.00 A Few Clouds FEW070 75.9 74.7 96% 75 29.74 0.0
01 05:55 E 3 10.00 A Few Clouds FEW016 75.9 74.8 96% 75 29.73 0.0
01 05:35 E 5 10.00 A Few Clouds FEW031 76.3 75 96% 76 29.73 0.0
01 05:15 SE 3 10.00 Mostly Cloudy SCT011 SCT017 BKN029 76.5 75 95% 77 29.73 0.0
01 04:55 SE 3 10.00 Overcast OVC010 76.5 75.2 96% 76 29.74 0.0
01 04:35 Calm 10.00 Overcast BKN008 OVC014 76.5 75.6 97% 76 29.75 0.0
01 04:15 Calm 10.00 Overcast BKN009 OVC016 75.9 75.4 98% 75 29.75 0.0
01 03:55 E 5 10.00 Mostly Cloudy BKN010 BKN016 75.7 75.2 98% 74 29.74 0.0
01 03:35 E 5 10.00 Mostly Cloudy BKN011 75.9 74.7 96% 75 29.74 0.0
01 03:15 NE 3 10.00 Overcast OVC011 75.7 74.1 95% 75 29.75 0.0
01 02:55 NE 3 10.00 Mostly Cloudy BKN012 75.6 73.9 95% 74 29.74 0.0
01 02:35 NE 5 10.00 Overcast OVC012 75.7 74.1 95% 75 29.74 0.0
01 02:15 NE 5 10.00 Overcast OVC012 75.9 74.1 94% 75 29.75 0.0
01 01:55 NE 3 10.00 Overcast OVC012 76.1 74.3 94% 76 29.75 0.0
01 01:35 E 6 10.00 Overcast OVC011 76.5 74.7 94% 77 29.74 0.0
01 01:15 E 5 10.00 Overcast OVC011 76.5 74.3 93% 77 29.74 0.0
01 00:55 NE 5 10.00 Overcast OVC011 76.5 74.3 93% 77 29.75 0.0
01 00:35 NE 5 10.00 Overcast OVC012 76.5 74.3 93% 77 29.75 0.0
01 00:15 E 5 10.00 Mostly Cloudy BKN013 76.3 73.8 92% 76 29.74 0.0
30 23:55 E 5 10.00 Partly Cloudy FEW013 SCT065 SCT180 76.5 73.6 91% 77 29.76 0.0
30 23:35 E 6 10.00 A Few Clouds FEW170 76.6 73.8 91% 77 29.76 0.0
30 23:15 E 5 10.00 Fair CLR 77 73.8 90% 78 29.77 0.0
30 22:55 E 7 10.00 Fair CLR 77.4 73.8 89% 79 29.78 0.0
30 22:35 E 6 10.00 Fair CLR 77.2 73.9 90% 79 29.77 0.0
30 22:15 E 7 10.00 Partly Cloudy SCT170 77.5 73.4 87% 79 29.76 0.0
30 21:55 E 7 10.00 Partly Cloudy FEW060 SCT170 78.1 73.6 86% 81 29.75 0.0
30 21:35 E 9 10.00 Partly Cloudy FEW017 SCT060 77.9 73.9 88% 80 29.74 0.0
30 21:15 E 8 10.00 Partly Cloudy SCT017 78.3 74.1 87% 81 29.73 0.0
30 20:55 E 8 10.00 Mostly Cloudy BKN017 78.6 74.1 86% 82 29.73 0.0
30 20:35 E 10 10.00 Partly Cloudy SCT018 78.8 73.9 85% 82 29.72 0.0
30 20:15 E 10 10.00 Partly Cloudy SCT019 79.3 74.1 84% 83 29.7 0.0
30 19:55 E 8 10.00 Fair CLR 80.1 74.1 82% 85 29.7 0.0
30 19:35 E 12 10.00 Fair CLR 80.8 74.3 81% 86 29.69 0.0
30 19:15 E 14 10.00 Fair CLR 81.5 74.3 79% 87 29.68 0.0
30 18:55 E 10 G 21 10.00 Fair CLR 82.8 74.8 77% 90 29.67 0.0
30 18:35 E 13 G 21 10.00 Fair CLR 83.7 75 75% 91 29.66 0.0
30 18:15 E 15 10.00 A Few Clouds FEW050 83.8 75.6 76% 92 29.66 0.0
30 17:55 E 15 G 22 10.00 A Few Clouds FEW055 85.1 75.7 74% 94 29.66 0.0
30 17:35 E 14 10.00 A Few Clouds FEW032 85.8 76.1 73% 96 29.65 0.0
30 17:15 E 16 G 24 10.00 A Few Clouds FEW044 86.5 76.1 71% 97 29.64 0.0
30 16:55 E 16 G 26 10.00 Partly Cloudy SCT045 88 76.5 69% 99 29.64 0.0
30 16:35 E 14 10.00 A Few Clouds FEW045 90.5 77 65% 104 29.64 0.0
30 15:55 E 9 10.00 A Few Clouds FEW060 92.7 74.3 55% 103 29.65 0.0
30 15:35 SE 10 10.00 A Few Clouds FEW060 93.2 71.2 49% 100 29.66 0.0
30 15:15 SE 7 10.00 Partly Cloudy FEW060 SCT380 92.8 70.7 49% 99 29.67 0.0
30 14:55 SE 10 10.00 A Few Clouds FEW055 93.4 71.2 49% 101 29.68 0.0
30 14:35 SE 5 10.00 Partly Cloudy FEW055 SCT380 95 70.7 45% 102 29.69 0.0
30 14:15 S 12 G 17 10.00 Partly Cloudy FEW055 SCT330 93.2 70.2 47% 99 29.7 0.0
30 13:55 S 12 10.00 Partly Cloudy FEW050 SCT370 92.5 71.1 50% 99 29.71 0.0
30 13:35 Vrbl 5 10.00 Partly Cloudy FEW047 SCT370 91.8 72.5 53% 100 29.73 0.0
30 13:15 S 8 10.00 A Few Clouds FEW040 91.2 72.3 54% 99 29.73 0.0
30 12:55 SE 8 10.00 Partly Cloudy FEW037 SCT370 90 73.2 58% 98 29.74 0.0
30 12:35 Vrbl 3 10.00 Partly Cloudy SCT034 88.7 73.6 61% 97 29.76 0.0
30 12:15 SE 10 10.00 Mostly Cloudy SCT030 BKN035 86.4 75 69% 96 29.77 0.0
30 11:55 S 8 10.00 Partly Cloudy SCT027 SCT038 SCT370 86 74.8 69% 95 29.78 0.0
30 11:35 S 8 10.00 Partly Cloudy FEW027 SCT035 SCT280 SCT380 84 75.6 76% 92 29.78 0.0
30 11:15 SE 6 10.00 Mostly Cloudy SCT025 BKN034 81.7 75.7 82% 89 29.78 0.0
30 10:55 SE 6 10.00 Mostly Cloudy FEW018 SCT024 BKN029 80.6 75.9 86% 87 29.78 0.0
30 10:35 SE 5 10.00 Partly Cloudy FEW022 SCT032 80.4 75.6 85% 86 29.79 0.0
30 10:15 SE 8 10.00 Partly Cloudy FEW015 SCT033 80.6 75.7 85% 86 29.79 0.0
30 09:55 SE 7 10.00 Partly Cloudy SCT013 80.1 76.5 89% 86 29.79 0.0
30 09:35 E 6 10.00 Partly Cloudy SCT010 79.3 76.5 91% 84 29.79 0.0
30 09:15 E 6 10.00 NULL NULL 78.4 76.8 95% 82 29.79 0.0
30 08:55 E 8 10.00 NULL NULL 77.5 76.5 96% 79 29.8 0.0
30 08:35 E 7 10.00 NULL NULL 76.6 76.6 100% 77 29.79 0.0
30 08:15 E 6 10.00 NULL NULL 75.9 75.9 100% 75 29.79 0.0
30 07:55 NE 6 10.00 NULL NULL 75.7 75.7 100% 74 29.79 0.0
30 07:35 NE 6 9.00 NULL NULL 75.2 75.2 100% 73 29.78 0.0
30 07:15 E 3 8.00 NULL NULL 74.7 74.7 100% 29.77 0.0
30 06:55 E 5 8.00 NULL NULL 74.5 74.3 99% 29.75 0.0
30 06:35 E 5 9.00 NULL NULL 74.8 74.5 99% 29.74 0.0
30 06:15 E 7 10.00 NULL NULL 75 74.7 99% 72 29.74 0.0
30 05:55 E 5 10.00 NULL NULL 75.2 74.8 99% 73 29.76 0.0
30 05:35 E 5 10.00 Fair CLR 74.8 74.3 98% 29.75 0.0
30 05:15 E 5 10.00 Fair CLR 75 74.3 98% 73 29.76 0.0
30 04:35 E 5 10.00 Mostly Cloudy BKN013 BKN021 75.6 75 98% 74 29.76 0.0
30 04:15 E 7 10.00 Mostly Cloudy SCT012 BKN018 75.7 75.2 98% 74 29.77 0.0
30 03:55 E 6 10.00 Overcast BKN010 OVC016 75.9 75.4 98% 75 29.77 0.0
30 03:35 E 5 10.00 Overcast FEW009 OVC016 75.9 75.4 98% 75 29.77 0.0
30 03:15 E 6 10.00 Mostly Cloudy BKN014 75.6 75 98% 74 29.76 0.0
30 02:55 E 6 10.00 NULL NULL 75.2 74.5 98% 73 29.77 0.0
30 02:35 E 6 10.00 NULL NULL 75.4 74.5 97% 74 29.77 0.0
30 02:15 E 7 10.00 NULL NULL 75.7 75.2 98% 74 29.77 0.0
30 01:55 SE 8 10.00 Fair CLR 75.7 75.2 98% 74 29.77 0.0
30 01:35 SE 8 10.00 A Few Clouds FEW230 75.9 75.4 98% 75 29.78 0.0
30 01:15 SE 6 10.00 Fair CLR 75.9 74.7 96% 75 29.79 0.0
30 00:55 SE 5 10.00 Fair CLR 75.9 73.9 94% 75 29.79 0.0
30 00:35 SE 6 10.00 Fair CLR 76.1 73.9 93% 76 29.79 0.0
30 00:15 SE 6 10.00 Fair CLR 76.6 74.1 92% 77 29.79 0.0
29 23:55 SE 6 10.00 Fair CLR 76.8 74.3 92% 78 29.79 0.0
29 23:35 SE 3 10.00 Fair CLR 77.2 74.5 91% 79 29.8 0.0
29 23:15 SE 9 10.00 Fair CLR 78.1 74.5 89% 81 29.79 0.0
29 22:55 SE 7 10.00 Fair CLR 78.4 74.3 87% 81 29.79 0.0
29 22:35 SE 7 10.00 Fair CLR 78.8 74.5 87% 82 29.78 0.0
29 22:15 SE 8 10.00 Partly Cloudy SCT230 79.2 74.3 85% 83 29.78 0.0
29 21:55 SE 7 10.00 Partly Cloudy SCT230 79.7 74.5 84% 84 29.77 0.0
29 21:35 SE 9 10.00 Fair CLR 80.6 74.5 82% 86 29.77 0.0
29 21:15 SE 6 10.00 Fair CLR 81.1 74.7 81% 87 29.77 0.0
29 20:55 SE 8 10.00 Fair CLR 81.5 74.7 80% 88 29.76 0.0
29 20:35 SE 7 10.00 Fair CLR 81.9 74.8 79% 88 29.75 0.0
29 20:15 SE 8 10.00 Fair CLR 82.6 74.7 77% 89 29.73 0.0
29 19:55 SE 9 G 18 10.00 Fair CLR 83.5 74.8 75% 91 29.72 0.0
29 19:35 SE 13 G 21 10.00 Fair CLR 84.9 75.2 73% 94 29.72 0.0
29 19:15 SE 14 G 20 10.00 Fair CLR 86.2 75.6 71% 96 29.71 0.0
29 18:55 SE 14 10.00 Fair CLR 87.4 75.6 68% 98 29.71 0.0
29 18:35 E 12 G 21 10.00 Fair CLR 88.5 75.7 66% 99 29.7 0.0
29 18:15 SE 14 10.00 Fair CLR 90.7 75.7 62% 102 29.7 0.0
29 17:55 E 13 10.00 Fair CLR 92.5 75.7 58% 105 29.69 0.0
29 17:35 SE 13 10.00 Fair CLR 93.7 74.8 54% 105 29.69 0.0
Date Time (cdt) Wind (mph) Vis. (mi.) Weather Sky Cond. Air Dwpt Max. Min. Relative Humidity Wind Chill (°F) Heat Index (°F) altimeter (in) sea level (mb) 1 hr 3 hr 6 hr
6 hour
Temperature (ºF) Pressure Precipitation (in)